sensor_id;sensor_type;location;lat;lon;timestamp;temperature;humidity
4795;DHT22;2411;47.060;15.064;2022-12-24T00:00:39;5.20;39.40
4795;DHT22;2411;47.060;15.064;2022-12-24T00:03:06;5.40;36.90
4795;DHT22;2411;47.060;15.064;2022-12-24T00:05:33;5.60;36.70
4795;DHT22;2411;47.060;15.064;2022-12-24T00:08:03;5.60;36.80
4795;DHT22;2411;47.060;15.064;2022-12-24T00:10:30;5.60;35.80
4795;DHT22;2411;47.060;15.064;2022-12-24T00:12:57;5.60;36.60
4795;DHT22;2411;47.060;15.064;2022-12-24T00:15:24;5.60;36.10
4795;DHT22;2411;47.060;15.064;2022-12-24T00:17:51;5.50;35.40
4795;DHT22;2411;47.060;15.064;2022-12-24T00:20:19;5.40;36.30
4795;DHT22;2411;47.060;15.064;2022-12-24T00:22:46;5.30;36.60
4795;DHT22;2411;47.060;15.064;2022-12-24T00:25:13;5.40;34.30
4795;DHT22;2411;47.060;15.064;2022-12-24T00:27:40;5.20;34.90
4795;DHT22;2411;47.060;15.064;2022-12-24T00:30:08;5.20;34.80
4795;DHT22;2411;47.060;15.064;2022-12-24T00:32:35;5.10;34.90
4795;DHT22;2411;47.060;15.064;2022-12-24T00:35:04;5.10;35.70
4795;DHT22;2411;47.060;15.064;2022-12-24T00:37:31;5.30;35.70
4795;DHT22;2411;47.060;15.064;2022-12-24T00:39:58;5.30;35.10
4795;DHT22;2411;47.060;15.064;2022-12-24T00:42:25;5.50;34.50
4795;DHT22;2411;47.060;15.064;2022-12-24T00:44:52;5.60;33.50
4795;DHT22;2411;47.060;15.064;2022-12-24T00:47:19;5.70;35.70
4795;DHT22;2411;47.060;15.064;2022-12-24T00:49:47;5.50;31.20
4795;DHT22;2411;47.060;15.064;2022-12-24T00:52:14;5.30;31.20
4795;DHT22;2411;47.060;15.064;2022-12-24T00:54:41;5.30;32.00
4795;DHT22;2411;47.060;15.064;2022-12-24T00:57:08;5.40;33.50
4795;DHT22;2411;47.060;15.064;2022-12-24T00:59:35;5.70;32.20
4795;DHT22;2411;47.060;15.064;2022-12-24T01:02:03;5.70;32.50
4795;DHT22;2411;47.060;15.064;2022-12-24T01:04:30;5.80;31.80
4795;DHT22;2411;47.060;15.064;2022-12-24T01:07:16;5.80;31.10
4795;DHT22;2411;47.060;15.064;2022-12-24T01:09:43;5.70;30.40
4795;DHT22;2411;47.060;15.064;2022-12-24T01:12:11;5.70;31.20
4795;DHT22;2411;47.060;15.064;2022-12-24T01:14:38;5.80;30.80
4795;DHT22;2411;47.060;15.064;2022-12-24T01:17:05;5.70;30.70
4795;DHT22;2411;47.060;15.064;2022-12-24T01:19:32;5.90;32.00
4795;DHT22;2411;47.060;15.064;2022-12-24T01:21:59;6.10;30.50
4795;DHT22;2411;47.060;15.064;2022-12-24T01:24:27;6.10;29.80
4795;DHT22;2411;47.060;15.064;2022-12-24T01:26:54;6.20;30.40
4795;DHT22;2411;47.060;15.064;2022-12-24T01:29:22;6.20;29.80
4795;DHT22;2411;47.060;15.064;2022-12-24T01:31:49;6.10;29.00
4795;DHT22;2411;47.060;15.064;2022-12-24T01:34:16;6.10;29.40
4795;DHT22;2411;47.060;15.064;2022-12-24T01:36:43;6.00;29.40
4795;DHT22;2411;47.060;15.064;2022-12-24T01:39:10;5.90;29.60
4795;DHT22;2411;47.060;15.064;2022-12-24T01:41:37;5.70;29.80
4795;DHT22;2411;47.060;15.064;2022-12-24T01:44:30;5.60;30.70
4795;DHT22;2411;47.060;15.064;2022-12-24T01:49:39;5.60;29.90
4795;DHT22;2411;47.060;15.064;2022-12-24T01:52:17;5.40;28.70
4795;DHT22;2411;47.060;15.064;2022-12-24T02:00:09;5.20;31.60
4795;DHT22;2411;47.060;15.064;2022-12-24T02:02:41;5.20;33.10
4795;DHT22;2411;47.060;15.064;2022-12-24T02:07:49;5.40;33.70
4795;DHT22;2411;47.060;15.064;2022-12-24T02:10:17;5.50;32.70
4795;DHT22;2411;47.060;15.064;2022-12-24T02:12:45;5.30;31.00
4795;DHT22;2411;47.060;15.064;2022-12-24T02:15:15;4.90;29.40
4795;DHT22;2411;47.060;15.064;2022-12-24T02:31:40;4.70;35.40
4795;DHT22;2411;47.060;15.064;2022-12-24T02:34:21;4.90;36.30
4795;DHT22;2411;47.060;15.064;2022-12-24T02:37:02;5.00;35.80
4795;DHT22;2411;47.060;15.064;2022-12-24T02:42:03;5.40;34.80
4795;DHT22;2411;47.060;15.064;2022-12-24T02:44:54;5.50;32.40
4795;DHT22;2411;47.060;15.064;2022-12-24T02:47:24;5.20;33.00
4795;DHT22;2411;47.060;15.064;2022-12-24T02:49:52;4.80;31.40
4795;DHT22;2411;47.060;15.064;2022-12-24T02:52:40;4.50;28.70
4795;DHT22;2411;47.060;15.064;2022-12-24T02:55:20;4.20;29.20
4795;DHT22;2411;47.060;15.064;2022-12-24T03:01:14;4.10;35.00
4795;DHT22;2411;47.060;15.064;2022-12-24T03:04:16;4.30;38.70
4795;DHT22;2411;47.060;15.064;2022-12-24T03:12:19;4.10;37.80
4795;DHT22;2411;47.060;15.064;2022-12-24T03:14:47;4.20;37.90
4795;DHT22;2411;47.060;15.064;2022-12-24T03:17:17;4.10;41.90
4795;DHT22;2411;47.060;15.064;2022-12-24T03:19:45;4.20;42.60
4795;DHT22;2411;47.060;15.064;2022-12-24T03:22:12;3.90;34.50
4795;DHT22;2411;47.060;15.064;2022-12-24T03:24:40;3.60;36.50
4795;DHT22;2411;47.060;15.064;2022-12-24T03:27:08;3.60;38.90
4795;DHT22;2411;47.060;15.064;2022-12-24T03:29:39;3.60;41.20
4795;DHT22;2411;47.060;15.064;2022-12-24T03:32:06;3.50;44.30
4795;DHT22;2411;47.060;15.064;2022-12-24T03:34:33;3.50;42.50
4795;DHT22;2411;47.060;15.064;2022-12-24T03:37:01;3.40;43.70
4795;DHT22;2411;47.060;15.064;2022-12-24T03:39:29;3.40;46.70
4795;DHT22;2411;47.060;15.064;2022-12-24T03:41:56;3.60;53.90
4795;DHT22;2411;47.060;15.064;2022-12-24T03:44:23;3.60;50.10
4795;DHT22;2411;47.060;15.064;2022-12-24T03:46:50;3.20;39.80
4795;DHT22;2411;47.060;15.064;2022-12-24T03:49:17;3.20;49.30
4795;DHT22;2411;47.060;15.064;2022-12-24T03:51:45;3.50;56.30
4795;DHT22;2411;47.060;15.064;2022-12-24T03:54:12;3.60;53.70
4795;DHT22;2411;47.060;15.064;2022-12-24T03:56:39;3.50;53.30
4795;DHT22;2411;47.060;15.064;2022-12-24T03:59:06;3.60;52.50
4795;DHT22;2411;47.060;15.064;2022-12-24T04:01:33;3.50;52.90
4795;DHT22;2411;47.060;15.064;2022-12-24T04:04:01;3.40;73.50
4795;DHT22;2411;47.060;15.064;2022-12-24T04:06:28;3.40;56.60
4795;DHT22;2411;47.060;15.064;2022-12-24T04:08:55;3.40;63.70
4795;DHT22;2411;47.060;15.064;2022-12-24T04:11:22;3.50;67.00
4795;DHT22;2411;47.060;15.064;2022-12-24T04:13:50;3.40;64.40
4795;DHT22;2411;47.060;15.064;2022-12-24T04:16:17;3.60;70.50
4795;DHT22;2411;47.060;15.064;2022-12-24T04:18:44;3.60;56.20
4795;DHT22;2411;47.060;15.064;2022-12-24T04:21:12;3.20;47.80
4795;DHT22;2411;47.060;15.064;2022-12-24T04:23:40;3.10;50.70
4795;DHT22;2411;47.060;15.064;2022-12-24T04:26:11;3.00;56.40
4795;DHT22;2411;47.060;15.064;2022-12-24T04:28:40;3.00;58.00
4795;DHT22;2411;47.060;15.064;2022-12-24T04:31:13;3.00;64.70
4795;DHT22;2411;47.060;15.064;2022-12-24T04:33:41;3.00;67.80
4795;DHT22;2411;47.060;15.064;2022-12-24T04:36:12;3.10;69.20
4795;DHT22;2411;47.060;15.064;2022-12-24T04:38:39;3.00;66.80
4795;DHT22;2411;47.060;15.064;2022-12-24T04:41:12;3.00;76.40
4795;DHT22;2411;47.060;15.064;2022-12-24T04:43:50;3.00;67.10
4795;DHT22;2411;47.060;15.064;2022-12-24T04:46:20;3.00;67.10
4795;DHT22;2411;47.060;15.064;2022-12-24T04:48:48;3.30;80.10
4795;DHT22;2411;47.060;15.064;2022-12-24T04:51:17;3.40;75.40
4795;DHT22;2411;47.060;15.064;2022-12-24T04:53:45;3.60;76.10
4795;DHT22;2411;47.060;15.064;2022-12-24T04:56:15;3.50;68.90
4795;DHT22;2411;47.060;15.064;2022-12-24T04:58:43;3.30;61.60
4795;DHT22;2411;47.060;15.064;2022-12-24T05:01:19;3.70;70.30
4795;DHT22;2411;47.060;15.064;2022-12-24T05:03:48;3.80;50.10
4795;DHT22;2411;47.060;15.064;2022-12-24T05:06:18;3.60;46.60
4795;DHT22;2411;47.060;15.064;2022-12-24T05:08:45;3.40;52.40
4795;DHT22;2411;47.060;15.064;2022-12-24T05:11:13;3.30;51.00
4795;DHT22;2411;47.060;15.064;2022-12-24T05:13:42;3.50;84.80
4795;DHT22;2411;47.060;15.064;2022-12-24T05:16:15;4.00;52.60
4795;DHT22;2411;47.060;15.064;2022-12-24T05:18:42;4.00;50.80
4795;DHT22;2411;47.060;15.064;2022-12-24T05:21:13;3.80;50.80
4795;DHT22;2411;47.060;15.064;2022-12-24T05:23:41;3.60;45.10
4795;DHT22;2411;47.060;15.064;2022-12-24T05:26:34;3.50;47.30
4795;DHT22;2411;47.060;15.064;2022-12-24T05:29:03;3.40;54.50
4795;DHT22;2411;47.060;15.064;2022-12-24T05:31:31;3.00;42.00
4795;DHT22;2411;47.060;15.064;2022-12-24T05:34:00;2.70;46.20
4795;DHT22;2411;47.060;15.064;2022-12-24T05:36:28;2.60;52.20
4795;DHT22;2411;47.060;15.064;2022-12-24T05:38:56;2.40;70.80
4795;DHT22;2411;47.060;15.064;2022-12-24T05:41:23;2.40;55.00
4795;DHT22;2411;47.060;15.064;2022-12-24T05:43:51;2.30;59.10
4795;DHT22;2411;47.060;15.064;2022-12-24T05:46:19;2.40;69.90
4795;DHT22;2411;47.060;15.064;2022-12-24T05:48:47;2.30;66.40
4795;DHT22;2411;47.060;15.064;2022-12-24T05:51:17;2.30;73.70
4795;DHT22;2411;47.060;15.064;2022-12-24T05:53:46;2.40;86.10
4795;DHT22;2411;47.060;15.064;2022-12-24T05:56:17;2.40;89.20
4795;DHT22;2411;47.060;15.064;2022-12-24T05:58:45;2.50;96.50
4795;DHT22;2411;47.060;15.064;2022-12-24T06:01:13;2.40;92.70
4795;DHT22;2411;47.060;15.064;2022-12-24T06:03:41;2.40;90.20
4795;DHT22;2411;47.060;15.064;2022-12-24T06:06:17;2.10;68.50
4795;DHT22;2411;47.060;15.064;2022-12-24T06:08:48;2.10;78.60
4795;DHT22;2411;47.060;15.064;2022-12-24T06:11:17;2.20;78.00
4795;DHT22;2411;47.060;15.064;2022-12-24T06:13:45;2.10;76.80
4795;DHT22;2411;47.060;15.064;2022-12-24T06:16:14;2.40;97.30
4795;DHT22;2411;47.060;15.064;2022-12-24T06:18:42;2.60;96.40
4795;DHT22;2411;47.060;15.064;2022-12-24T06:21:10;2.80;94.20
4795;DHT22;2411;47.060;15.064;2022-12-24T06:23:40;2.70;93.40
4795;DHT22;2411;47.060;15.064;2022-12-24T06:26:09;3.10;73.40
4795;DHT22;2411;47.060;15.064;2022-12-24T06:28:38;3.00;91.00
4795;DHT22;2411;47.060;15.064;2022-12-24T06:31:08;2.80;64.60
4795;DHT22;2411;47.060;15.064;2022-12-24T06:33:36;2.70;64.80
4795;DHT22;2411;47.060;15.064;2022-12-24T06:36:08;2.50;63.90
4795;DHT22;2411;47.060;15.064;2022-12-24T06:38:44;2.50;70.40
4795;DHT22;2411;47.060;15.064;2022-12-24T06:41:11;2.40;69.40
4795;DHT22;2411;47.060;15.064;2022-12-24T06:43:39;2.30;74.30
4795;DHT22;2411;47.060;15.064;2022-12-24T06:46:08;2.40;77.40
4795;DHT22;2411;47.060;15.064;2022-12-24T06:48:36;2.50;71.50
4795;DHT22;2411;47.060;15.064;2022-12-24T06:51:03;2.50;67.40
4795;DHT22;2411;47.060;15.064;2022-12-24T06:53:31;2.30;55.20
4795;DHT22;2411;47.060;15.064;2022-12-24T06:56:06;2.10;66.00
4795;DHT22;2411;47.060;15.064;2022-12-24T06:58:34;2.00;63.90
4795;DHT22;2411;47.060;15.064;2022-12-24T07:01:04;2.10;80.70
4795;DHT22;2411;47.060;15.064;2022-12-24T07:03:32;2.30;87.60
4795;DHT22;2411;47.060;15.064;2022-12-24T07:06:00;2.20;78.00
4795;DHT22;2411;47.060;15.064;2022-12-24T07:08:27;2.40;89.20
4795;DHT22;2411;47.060;15.064;2022-12-24T07:10:55;2.40;79.80
4795;DHT22;2411;47.060;15.064;2022-12-24T07:13:22;2.40;78.30
4795;DHT22;2411;47.060;15.064;2022-12-24T07:15:59;2.50;79.20
4795;DHT22;2411;47.060;15.064;2022-12-24T07:18:27;2.50;65.90
4795;DHT22;2411;47.060;15.064;2022-12-24T07:20:55;2.40;68.10
4795;DHT22;2411;47.060;15.064;2022-12-24T07:23:22;2.50;67.70
4795;DHT22;2411;47.060;15.064;2022-12-24T07:25:49;2.50;70.80
4795;DHT22;2411;47.060;15.064;2022-12-24T07:28:16;2.50;72.40
4795;DHT22;2411;47.060;15.064;2022-12-24T07:30:53;2.90;69.30
4795;DHT22;2411;47.060;15.064;2022-12-24T07:33:20;3.40;57.00
4795;DHT22;2411;47.060;15.064;2022-12-24T07:35:48;3.60;48.60
4795;DHT22;2411;47.060;15.064;2022-12-24T07:38:21;3.60;46.90
4795;DHT22;2411;47.060;15.064;2022-12-24T07:40:48;3.60;48.90
4795;DHT22;2411;47.060;15.064;2022-12-24T07:43:16;3.70;47.00
4795;DHT22;2411;47.060;15.064;2022-12-24T07:45:43;3.50;46.50
4795;DHT22;2411;47.060;15.064;2022-12-24T07:48:10;3.40;49.50
4795;DHT22;2411;47.060;15.064;2022-12-24T07:50:37;3.40;48.90
4795;DHT22;2411;47.060;15.064;2022-12-24T07:53:04;3.40;46.40
4795;DHT22;2411;47.060;15.064;2022-12-24T07:55:31;3.40;47.50
4795;DHT22;2411;47.060;15.064;2022-12-24T07:57:58;3.50;47.10
4795;DHT22;2411;47.060;15.064;2022-12-24T08:00:25;3.70;44.70
4795;DHT22;2411;47.060;15.064;2022-12-24T08:02:53;3.70;44.70
4795;DHT22;2411;47.060;15.064;2022-12-24T08:05:20;3.60;45.10
4795;DHT22;2411;47.060;15.064;2022-12-24T08:07:48;3.70;44.00
4795;DHT22;2411;47.060;15.064;2022-12-24T08:10:15;3.70;46.90
4795;DHT22;2411;47.060;15.064;2022-12-24T08:12:42;4.10;43.90
4795;DHT22;2411;47.060;15.064;2022-12-24T08:15:10;4.10;43.60
4795;DHT22;2411;47.060;15.064;2022-12-24T08:17:37;4.20;44.10
4795;DHT22;2411;47.060;15.064;2022-12-24T08:20:05;4.40;41.90
4795;DHT22;2411;47.060;15.064;2022-12-24T08:22:32;4.50;39.30
4795;DHT22;2411;47.060;15.064;2022-12-24T08:24:59;4.60;39.00
4795;DHT22;2411;47.060;15.064;2022-12-24T08:27:26;4.40;38.20
4795;DHT22;2411;47.060;15.064;2022-12-24T08:29:53;4.40;38.00
4795;DHT22;2411;47.060;15.064;2022-12-24T08:32:21;4.40;36.80
4795;DHT22;2411;47.060;15.064;2022-12-24T08:34:48;4.40;35.80
4795;DHT22;2411;47.060;15.064;2022-12-24T08:37:15;4.40;35.70
4795;DHT22;2411;47.060;15.064;2022-12-24T08:39:42;4.40;36.80
4795;DHT22;2411;47.060;15.064;2022-12-24T08:42:09;4.50;36.80
4795;DHT22;2411;47.060;15.064;2022-12-24T08:44:37;4.50;37.00
4795;DHT22;2411;47.060;15.064;2022-12-24T08:47:04;4.70;32.50
4795;DHT22;2411;47.060;15.064;2022-12-24T08:49:31;4.80;33.30
4795;DHT22;2411;47.060;15.064;2022-12-24T08:51:58;4.80;32.40
4795;DHT22;2411;47.060;15.064;2022-12-24T08:54:25;4.80;32.50
4795;DHT22;2411;47.060;15.064;2022-12-24T08:56:53;4.80;33.00
4795;DHT22;2411;47.060;15.064;2022-12-24T08:59:20;4.70;32.90
4795;DHT22;2411;47.060;15.064;2022-12-24T09:01:47;4.70;32.80
4795;DHT22;2411;47.060;15.064;2022-12-24T09:04:15;4.70;31.50
4795;DHT22;2411;47.060;15.064;2022-12-24T09:06:42;4.80;32.60
4795;DHT22;2411;47.060;15.064;2022-12-24T09:09:09;4.80;32.00
4795;DHT22;2411;47.060;15.064;2022-12-24T09:11:36;4.80;32.20
4795;DHT22;2411;47.060;15.064;2022-12-24T09:14:04;4.70;32.30
4795;DHT22;2411;47.060;15.064;2022-12-24T09:16:31;4.70;32.30
4795;DHT22;2411;47.060;15.064;2022-12-24T09:18:59;4.70;31.50
4795;DHT22;2411;47.060;15.064;2022-12-24T09:21:26;4.80;31.50
4795;DHT22;2411;47.060;15.064;2022-12-24T09:23:53;5.00;31.60
4795;DHT22;2411;47.060;15.064;2022-12-24T09:26:23;5.10;32.00
4795;DHT22;2411;47.060;15.064;2022-12-24T09:28:51;5.50;33.00
4795;DHT22;2411;47.060;15.064;2022-12-24T09:31:19;5.50;32.60
4795;DHT22;2411;47.060;15.064;2022-12-24T09:33:47;5.50;33.40
4795;DHT22;2411;47.060;15.064;2022-12-24T09:36:15;5.50;33.60
4795;DHT22;2411;47.060;15.064;2022-12-24T09:38:42;5.60;34.80
4795;DHT22;2411;47.060;15.064;2022-12-24T09:41:32;5.60;34.10
4795;DHT22;2411;47.060;15.064;2022-12-24T09:46:51;6.00;33.80
4795;DHT22;2411;47.060;15.064;2022-12-24T09:49:22;6.20;33.60
4795;DHT22;2411;47.060;15.064;2022-12-24T09:51:52;6.50;36.50
4795;DHT22;2411;47.060;15.064;2022-12-24T09:54:29;6.60;36.50
4795;DHT22;2411;47.060;15.064;2022-12-24T09:57:03;6.90;36.40
4795;DHT22;2411;47.060;15.064;2022-12-24T09:59:42;7.00;35.00
4795;DHT22;2411;47.060;15.064;2022-12-24T10:02:18;7.40;31.50
4795;DHT22;2411;47.060;15.064;2022-12-24T10:04:47;7.50;29.80
4795;DHT22;2411;47.060;15.064;2022-12-24T10:07:48;8.40;28.70
4795;DHT22;2411;47.060;15.064;2022-12-24T10:10:45;9.20;28.80
4795;DHT22;2411;47.060;15.064;2022-12-24T10:18:58;10.10;28.80
4795;DHT22;2411;47.060;15.064;2022-12-24T10:24:25;10.50;27.10
4795;DHT22;2411;47.060;15.064;2022-12-24T10:27:09;10.90;26.90
4795;DHT22;2411;47.060;15.064;2022-12-24T10:29:41;11.20;27.30
4795;DHT22;2411;47.060;15.064;2022-12-24T10:34:48;12.20;28.40
4795;DHT22;2411;47.060;15.064;2022-12-24T10:37:21;12.30;27.30
4795;DHT22;2411;47.060;15.064;2022-12-24T10:39:50;12.70;28.10
4795;DHT22;2411;47.060;15.064;2022-12-24T10:42:17;12.90;27.90
4795;DHT22;2411;47.060;15.064;2022-12-24T10:44:51;13.00;27.10
4795;DHT22;2411;47.060;15.064;2022-12-24T10:47:21;13.30;27.20
4795;DHT22;2411;47.060;15.064;2022-12-24T10:49:59;13.30;27.40
4795;DHT22;2411;47.060;15.064;2022-12-24T10:52:32;13.20;26.20
4795;DHT22;2411;47.060;15.064;2022-12-24T10:55:08;13.10;25.40
4795;DHT22;2411;47.060;15.064;2022-12-24T10:57:38;13.10;24.80
4795;DHT22;2411;47.060;15.064;2022-12-24T11:00:29;13.30;25.00
4795;DHT22;2411;47.060;15.064;2022-12-24T11:03:28;13.60;25.70
4795;DHT22;2411;47.060;15.064;2022-12-24T11:06:12;13.60;24.30
4795;DHT22;2411;47.060;15.064;2022-12-24T11:08:42;13.60;24.90
4795;DHT22;2411;47.060;15.064;2022-12-24T11:11:15;13.70;24.60
4795;DHT22;2411;47.060;15.064;2022-12-24T11:19:01;13.50;23.40
4795;DHT22;2411;47.060;15.064;2022-12-24T11:21:31;13.20;20.60
4795;DHT22;2411;47.060;15.064;2022-12-24T11:24:41;13.00;19.30
4795;DHT22;2411;47.060;15.064;2022-12-24T11:30:31;13.00;18.90
4795;DHT22;2411;47.060;15.064;2022-12-24T11:35:32;13.40;19.30
4795;DHT22;2411;47.060;15.064;2022-12-24T11:40:44;13.00;18.20
4795;DHT22;2411;47.060;15.064;2022-12-24T11:43:41;12.90;16.40
4795;DHT22;2411;47.060;15.064;2022-12-24T11:51:34;13.60;17.80
4795;DHT22;2411;47.060;15.064;2022-12-24T11:54:15;13.70;18.10
4795;DHT22;2411;47.060;15.064;2022-12-24T11:56:50;13.60;17.50
4795;DHT22;2411;47.060;15.064;2022-12-24T11:59:29;13.70;17.50
4795;DHT22;2411;47.060;15.064;2022-12-24T12:04:53;13.70;16.60
4795;DHT22;2411;47.060;15.064;2022-12-24T12:07:27;13.60;15.40
4795;DHT22;2411;47.060;15.064;2022-12-24T12:12:51;13.80;16.80
4795;DHT22;2411;47.060;15.064;2022-12-24T12:15:24;13.80;15.30
4795;DHT22;2411;47.060;15.064;2022-12-24T12:18:15;13.80;16.20
4795;DHT22;2411;47.060;15.064;2022-12-24T12:20:49;13.80;15.50
4795;DHT22;2411;47.060;15.064;2022-12-24T12:23:43;13.90;15.00
4795;DHT22;2411;47.060;15.064;2022-12-24T12:26:25;13.90;14.80
4795;DHT22;2411;47.060;15.064;2022-12-24T12:31:47;14.10;15.10
4795;DHT22;2411;47.060;15.064;2022-12-24T12:36:59;14.00;13.80
4795;DHT22;2411;47.060;15.064;2022-12-24T12:39:30;14.00;12.60
4795;DHT22;2411;47.060;15.064;2022-12-24T12:51:23;14.00;12.10
4795;DHT22;2411;47.060;15.064;2022-12-24T12:56:34;13.90;11.80
4795;DHT22;2411;47.060;15.064;2022-12-24T13:21:29;13.80;10.30
4795;DHT22;2411;47.060;15.064;2022-12-24T13:24:06;13.80;9.00
4795;DHT22;2411;47.060;15.064;2022-12-24T13:26:41;13.80;8.80
4795;DHT22;2411;47.060;15.064;2022-12-24T13:29:42;13.80;8.80
4795;DHT22;2411;47.060;15.064;2022-12-24T13:37:33;13.60;7.10
4795;DHT22;2411;47.060;15.064;2022-12-24T13:45:42;13.50;6.20
4795;DHT22;2411;47.060;15.064;2022-12-24T13:53:16;13.60;6.50
4795;DHT22;2411;47.060;15.064;2022-12-24T13:55:53;13.60;6.40
4795;DHT22;2411;47.060;15.064;2022-12-24T13:58:21;13.60;6.00
4795;DHT22;2411;47.060;15.064;2022-12-24T14:03:28;13.60;5.50
4795;DHT22;2411;47.060;15.064;2022-12-24T14:06:01;13.40;4.90
4795;DHT22;2411;47.060;15.064;2022-12-24T14:08:34;13.40;3.90
4795;DHT22;2411;47.060;15.064;2022-12-24T14:11:17;13.40;4.00
4795;DHT22;2411;47.060;15.064;2022-12-24T14:19:09;13.20;3.20
4795;DHT22;2411;47.060;15.064;2022-12-24T14:21:44;13.20;2.40
4795;DHT22;2411;47.060;15.064;2022-12-24T14:24:19;13.10;1.60
4795;DHT22;2411;47.060;15.064;2022-12-24T14:26:57;12.90;1.00
4795;DHT22;2411;47.060;15.064;2022-12-24T14:29:29;12.90;1.20
4795;DHT22;2411;47.060;15.064;2022-12-24T14:31:59;12.90;1.80
4795;DHT22;2411;47.060;15.064;2022-12-24T14:34:30;12.90;1.00
4795;DHT22;2411;47.060;15.064;2022-12-24T14:37:00;12.70;1.00
4795;DHT22;2411;47.060;15.064;2022-12-24T14:39:34;12.60;1.00
4795;DHT22;2411;47.060;15.064;2022-12-24T14:52:44;12.20;1.00
4795;DHT22;2411;47.060;15.064;2022-12-24T14:55:45;12.20;1.00
4795;DHT22;2411;47.060;15.064;2022-12-24T14:58:30;12.10;1.00
4795;DHT22;2411;47.060;15.064;2022-12-24T15:01:17;12.00;1.00
4795;DHT22;2411;47.060;15.064;2022-12-24T15:03:44;11.90;1.00
4795;DHT22;2411;47.060;15.064;2022-12-24T15:06:13;11.80;1.00
4795;DHT22;2411;47.060;15.064;2022-12-24T15:08:45;11.70;1.00
4795;DHT22;2411;47.060;15.064;2022-12-24T15:11:19;11.50;1.00
4795;DHT22;2411;47.060;15.064;2022-12-24T15:13:54;11.30;1.00
4795;DHT22;2411;47.060;15.064;2022-12-24T15:16:33;11.00;1.00
4795;DHT22;2411;47.060;15.064;2022-12-24T15:19:17;10.50;1.00
4795;DHT22;2411;47.060;15.064;2022-12-24T15:21:46;9.90;1.00
4795;DHT22;2411;47.060;15.064;2022-12-24T15:24:30;9.50;1.00
4795;DHT22;2411;47.060;15.064;2022-12-24T15:26:59;9.00;1.00
4795;DHT22;2411;47.060;15.064;2022-12-24T15:29:31;8.80;1.00
4795;DHT22;2411;47.060;15.064;2022-12-24T15:32:00;8.70;1.00
4795;DHT22;2411;47.060;15.064;2022-12-24T15:34:34;8.50;1.00
4795;DHT22;2411;47.060;15.064;2022-12-24T15:40:17;8.20;1.00
4795;DHT22;2411;47.060;15.064;2022-12-24T15:42:45;8.10;1.00
4795;DHT22;2411;47.060;15.064;2022-12-24T15:45:22;8.10;1.00
4795;DHT22;2411;47.060;15.064;2022-12-24T15:50:35;7.90;1.00
4795;DHT22;2411;47.060;15.064;2022-12-24T15:53:05;7.70;1.00
4795;DHT22;2411;47.060;15.064;2022-12-24T15:58:28;7.40;1.00
4795;DHT22;2411;47.060;15.064;2022-12-24T16:03:40;7.20;1.00
4795;DHT22;2411;47.060;15.064;2022-12-24T16:06:21;7.10;1.00
4795;DHT22;2411;47.060;15.064;2022-12-24T16:08:48;7.10;1.00
4795;DHT22;2411;47.060;15.064;2022-12-24T16:11:24;7.00;1.00
4795;DHT22;2411;47.060;15.064;2022-12-24T16:16:33;6.70;1.00
4795;DHT22;2411;47.060;15.064;2022-12-24T16:19:01;6.70;1.00
4795;DHT22;2411;47.060;15.064;2022-12-24T16:21:30;6.60;1.00
4795;DHT22;2411;47.060;15.064;2022-12-24T16:24:22;6.50;1.00
4795;DHT22;2411;47.060;15.064;2022-12-24T16:26:50;6.40;1.00
4795;DHT22;2411;47.060;15.064;2022-12-24T16:29:18;6.40;1.00
4795;DHT22;2411;47.060;15.064;2022-12-24T16:31:49;6.30;1.00
4795;DHT22;2411;47.060;15.064;2022-12-24T16:34:18;6.20;1.00
4795;DHT22;2411;47.060;15.064;2022-12-24T16:36:46;6.20;1.00
4795;DHT22;2411;47.060;15.064;2022-12-24T16:39:16;6.20;1.00
4795;DHT22;2411;47.060;15.064;2022-12-24T16:41:50;6.10;1.00
4795;DHT22;2411;47.060;15.064;2022-12-24T16:44:36;6.10;1.00
4795;DHT22;2411;47.060;15.064;2022-12-24T16:47:05;5.90;1.00
4795;DHT22;2411;47.060;15.064;2022-12-24T16:49:36;5.80;1.00
4795;DHT22;2411;47.060;15.064;2022-12-24T16:52:15;5.40;1.00
4795;DHT22;2411;47.060;15.064;2022-12-24T16:54:42;5.30;1.00
4795;DHT22;2411;47.060;15.064;2022-12-24T16:57:10;5.30;1.00
4795;DHT22;2411;47.060;15.064;2022-12-24T16:59:37;5.20;1.00
4795;DHT22;2411;47.060;15.064;2022-12-24T17:02:05;5.30;1.00
4795;DHT22;2411;47.060;15.064;2022-12-24T17:04:40;5.30;1.00
4795;DHT22;2411;47.060;15.064;2022-12-24T17:07:13;5.20;1.00
4795;DHT22;2411;47.060;15.064;2022-12-24T17:09:40;5.00;1.00
4795;DHT22;2411;47.060;15.064;2022-12-24T17:12:08;5.00;1.00
4795;DHT22;2411;47.060;15.064;2022-12-24T17:14:37;5.10;1.00
4795;DHT22;2411;47.060;15.064;2022-12-24T17:17:04;4.80;1.00
4795;DHT22;2411;47.060;15.064;2022-12-24T17:19:31;4.80;1.00
4795;DHT22;2411;47.060;15.064;2022-12-24T17:21:59;5.00;1.00
4795;DHT22;2411;47.060;15.064;2022-12-24T17:24:26;4.90;1.00
4795;DHT22;2411;47.060;15.064;2022-12-24T17:26:53;4.80;1.00
4795;DHT22;2411;47.060;15.064;2022-12-24T17:29:20;4.80;1.00
4795;DHT22;2411;47.060;15.064;2022-12-24T17:31:47;4.70;1.00
4795;DHT22;2411;47.060;15.064;2022-12-24T17:34:14;4.70;1.00
4795;DHT22;2411;47.060;15.064;2022-12-24T17:36:41;4.80;1.00
4795;DHT22;2411;47.060;15.064;2022-12-24T17:39:09;4.80;1.00
4795;DHT22;2411;47.060;15.064;2022-12-24T17:41:38;4.70;1.00
4795;DHT22;2411;47.060;15.064;2022-12-24T17:44:05;4.80;1.00
4795;DHT22;2411;47.060;15.064;2022-12-24T17:46:34;4.80;1.00
4795;DHT22;2411;47.060;15.064;2022-12-24T17:49:02;4.90;1.00
4795;DHT22;2411;47.060;15.064;2022-12-24T17:51:29;5.00;1.00
4795;DHT22;2411;47.060;15.064;2022-12-24T17:53:59;5.00;1.00
4795;DHT22;2411;47.060;15.064;2022-12-24T17:56:27;5.10;1.00
4795;DHT22;2411;47.060;15.064;2022-12-24T17:58:55;5.20;1.00
4795;DHT22;2411;47.060;15.064;2022-12-24T18:01:24;5.10;1.00
4795;DHT22;2411;47.060;15.064;2022-12-24T18:03:52;5.10;1.00
4795;DHT22;2411;47.060;15.064;2022-12-24T18:06:19;5.00;1.00
4795;DHT22;2411;47.060;15.064;2022-12-24T18:08:46;5.00;1.00
4795;DHT22;2411;47.060;15.064;2022-12-24T18:13:51;5.20;1.00
4795;DHT22;2411;47.060;15.064;2022-12-24T18:18:54;5.20;1.00
4795;DHT22;2411;47.060;15.064;2022-12-24T18:21:25;5.40;1.00
4795;DHT22;2411;47.060;15.064;2022-12-24T18:23:52;5.30;1.00
4795;DHT22;2411;47.060;15.064;2022-12-24T18:26:25;5.20;1.00
4795;DHT22;2411;47.060;15.064;2022-12-24T18:28:57;4.60;1.00
4795;DHT22;2411;47.060;15.064;2022-12-24T18:31:25;4.20;1.00
4795;DHT22;2411;47.060;15.064;2022-12-24T18:33:53;4.30;1.00
4795;DHT22;2411;47.060;15.064;2022-12-24T18:36:22;4.30;1.00
4795;DHT22;2411;47.060;15.064;2022-12-24T18:38:50;4.40;1.00
4795;DHT22;2411;47.060;15.064;2022-12-24T18:41:27;4.50;1.00
4795;DHT22;2411;47.060;15.064;2022-12-24T18:43:55;4.70;1.00
4795;DHT22;2411;47.060;15.064;2022-12-24T18:46:25;4.80;1.00
4795;DHT22;2411;47.060;15.064;2022-12-24T18:48:54;4.80;1.00
4795;DHT22;2411;47.060;15.064;2022-12-24T18:51:25;4.80;1.00
4795;DHT22;2411;47.060;15.064;2022-12-24T18:53:52;4.90;1.00
4795;DHT22;2411;47.060;15.064;2022-12-24T18:56:22;4.90;1.50
4795;DHT22;2411;47.060;15.064;2022-12-24T18:58:52;4.90;1.00
4795;DHT22;2411;47.060;15.064;2022-12-24T19:01:24;5.00;1.00
4795;DHT22;2411;47.060;15.064;2022-12-24T19:03:52;4.90;1.00
4795;DHT22;2411;47.060;15.064;2022-12-24T19:06:20;4.90;1.00
4795;DHT22;2411;47.060;15.064;2022-12-24T19:08:47;4.90;1.00
4795;DHT22;2411;47.060;15.064;2022-12-24T19:11:30;4.90;1.00
4795;DHT22;2411;47.060;15.064;2022-12-24T19:13:58;4.90;1.00
4795;DHT22;2411;47.060;15.064;2022-12-24T19:16:27;5.00;1.00